Time;durP1;ratioP1;P1;durP2;ratioP2;P2;SDS_P1;SDS_P2;PMS_P1;PMS_P2;Temp;Humidity;BMP_temperature;BMP_pressure;BME280_temperature;BME280_humidity;BME280_pressure;Samples;Min_cycle;Max_cycle;Signal;HPM_P1;HPM_P2
2021/11/08 00:01:19;;;;;;;12.07;3.97;;;;;;;6.99;100.00;100393.97;4970006;28;20043;-86
2021/11/08 00:03:48;;;;;;;9.47;3.60;;;;;;;7.03;100.00;100403.56;4955519;28;20049;-86
2021/11/08 00:06:16;;;;;;;13.77;3.70;;;;;;;7.02;100.00;100404.44;4970671;28;20085;-85
2021/11/08 00:08:46;;;;;;;11.47;3.30;;;;;;;6.99;100.00;100410.59;4970807;28;20411;-86
2021/11/08 00:11:13;;;;;;;11.23;4.23;;;;;;;6.98;100.00;100426.38;4965445;28;20121;-86
2021/11/08 00:13:46;;;;;;;9.73;3.57;;;;;;;7.00;100.00;100414.97;4988699;28;20108;-86
2021/11/08 00:16:29;;;;;;;7.50;3.10;;;;;;;7.02;100.00;100409.69;4973085;28;20601;-86
2021/11/08 00:21:46;;;;;;;10.07;3.13;;;;;;;7.09;100.00;100416.63;4979313;28;20057;-85
2021/11/08 00:24:17;;;;;;;9.90;3.83;;;;;;;7.08;100.00;100429.78;4974965;28;20050;-85
2021/11/08 00:26:47;;;;;;;10.73;2.80;;;;;;;7.11;100.00;100430.63;4962495;28;20049;-82
2021/11/08 00:29:14;;;;;;;9.80;3.50;;;;;;;7.09;100.00;100431.53;4977169;28;20050;-84
2021/11/08 00:31:45;;;;;;;7.80;3.60;;;;;;;7.02;100.00;100442.09;4978315;28;20129;-87
2021/11/08 00:34:13;;;;;;;7.73;2.90;;;;;;;7.07;100.00;100435.94;4975558;28;20047;-82
2021/11/08 00:36:40;;;;;;;10.83;2.93;;;;;;;7.11;100.00;100449.00;4994229;28;20076;-84
2021/11/08 00:39:07;;;;;;;6.73;2.70;;;;;;;7.05;100.00;100438.56;4976879;28;20056;-87
2021/11/08 00:41:34;;;;;;;11.30;3.73;;;;;;;7.09;100.00;100429.78;4962057;28;20399;-84
2021/11/08 00:44:01;;;;;;;9.63;3.43;;;;;;;7.07;100.00;100446.44;4960787;28;20057;-85
2021/11/08 00:46:27;;;;;;;14.60;3.57;;;;;;;7.02;100.00;100446.47;4978236;28;20046;-84
2021/11/08 00:48:54;;;;;;;9.63;3.03;;;;;;;7.03;100.00;100450.84;4999820;28;20042;-84
2021/11/08 00:51:22;;;;;;;10.07;3.40;;;;;;;7.05;100.00;100446.44;4974179;28;20038;-88
2021/11/08 00:53:50;;;;;;;8.93;3.33;;;;;;;7.09;100.00;100449.91;4960822;28;20559;-84
2021/11/08 00:56:19;;;;;;;8.47;2.73;;;;;;;7.01;100.00;100453.47;4993893;28;20089;-85
2021/11/08 00:58:48;;;;;;;10.27;3.10;;;;;;;7.05;100.00;100446.44;4958706;28;20046;-85
2021/11/08 01:01:20;;;;;;;10.93;3.53;;;;;;;7.10;100.00;100457.78;4977816;28;20049;-85
2021/11/08 01:03:48;;;;;;;9.67;3.13;;;;;;;7.05;100.00;100456.94;4956126;28;20043;-84
2021/11/08 01:06:16;;;;;;;13.67;4.20;;;;;;;7.02;100.00;100462.22;4970378;28;20043;-82
2021/11/08 01:08:44;;;;;;;9.07;2.83;;;;;;;7.11;100.00;100464.78;4988780;28;20468;-84
2021/11/08 01:11:11;;;;;;;11.13;2.90;;;;;;;7.11;100.00;100466.53;4972837;28;20050;-85
2021/11/08 01:13:39;;;;;;;8.97;3.20;;;;;;;7.05;100.00;100470.06;4957941;28;20054;-85
2021/11/08 01:16:06;;;;;;;6.87;3.03;;;;;;;7.09;100.00;100463.91;4977200;28;20053;-84
2021/11/08 01:18:33;;;;;;;8.80;2.83;;;;;;;7.09;100.00;100469.19;4991920;28;20049;-83
2021/11/08 01:21:00;;;;;;;7.90;3.47;;;;;;;7.12;100.00;100479.63;4977236;28;20053;-83
2021/11/08 01:23:27;;;;;;;8.30;2.40;;;;;;;7.07;100.00;100484.09;4992162;28;20057;-85
2021/11/08 01:26:06;;;;;;;11.33;4.20;;;;;;;7.07;100.00;100483.22;4962341;28;20185;-84
2021/11/08 01:28:37;;;;;;;11.02;4.35;;;;;;;7.15;100.00;100484.88;4976195;28;20057;-86
2021/11/08 01:31:06;;;;;;;6.60;2.60;;;;;;;7.12;100.00;100490.16;4976534;28;20494;-84
2021/11/08 01:33:34;;;;;;;8.33;2.70;;;;;;;7.13;100.00;100485.75;4959612;28;20152;-84
2021/11/08 01:38:39;;;;;;;10.57;2.63;;;;;;;7.12;100.00;100500.66;4991676;28;20046;-84
2021/11/08 01:41:06;;;;;;;6.20;2.53;;;;;;;7.10;100.00;100494.56;4992553;28;20039;-84
2021/11/08 01:43:33;;;;;;;6.40;3.20;;;;;;;7.16;100.00;100496.25;4991152;28;20061;-84
2021/11/08 01:46:02;;;;;;;11.93;3.13;;;;;;;7.16;100.00;100502.38;4976880;28;20045;-84
2021/11/08 01:48:28;;;;;;;7.83;2.50;;;;;;;7.17;100.00;100498.88;4973068;28;20059;-82
2021/11/08 01:50:55;;;;;;;8.27;2.37;;;;;;;7.21;100.00;100504.97;4964206;28;20420;-82
2021/11/08 01:53:23;;;;;;;5.90;2.30;;;;;;;7.15;100.00;100503.28;4956243;28;20047;-83
2021/11/08 01:55:51;;;;;;;3.80;2.07;;;;;;;7.12;100.00;100505.03;4965071;28;20137;-83
2021/11/08 01:58:20;;;;;;;6.17;2.10;;;;;;;7.15;100.00;100510.28;4970279;28;20049;-84
2021/11/08 02:00:48;;;;;;;5.17;1.70;;;;;;;7.14;100.00;100511.16;4976713;28;20507;-83
2021/11/08 02:03:16;;;;;;;5.13;2.20;;;;;;;7.16;100.00;100517.28;4959320;28;20451;-84
2021/11/08 02:05:47;;;;;;;5.43;2.27;;;;;;;7.18;100.00;100513.75;4991484;28;20074;-84
2021/11/08 02:08:15;;;;;;;7.40;1.70;;;;;;;7.24;100.00;100523.34;4971542;28;20039;-85
2021/11/08 02:10:42;;;;;;;5.93;2.70;;;;;;;7.23;100.00;100524.19;4983764;28;20046;-85
2021/11/08 02:13:09;;;;;;;3.57;1.60;;;;;;;7.19;100.00;100523.38;4974807;28;20046;-85
2021/11/08 02:15:36;;;;;;;7.17;2.50;;;;;;;7.17;100.00;100522.53;4972064;28;20489;-87
2021/11/08 02:18:08;;;;;;;6.03;2.50;;;;;;;7.21;100.00;100523.34;4975558;28;20069;-84
2021/11/08 02:20:35;;;;;;;5.40;2.10;;;;;;;7.21;100.00;100531.22;4978708;28;20039;-84
2021/11/08 02:23:05;;;;;;;3.80;1.60;;;;;;;7.23;100.00;100542.59;4975318;28;20053;-85
2021/11/08 02:25:35;;;;;;;6.27;2.00;;;;;;;7.21;100.00;100539.13;4958298;28;20051;-84
2021/11/08 02:28:03;;;;;;;4.03;1.60;;;;;;;7.25;100.00;100546.09;4975529;28;20053;-85
2021/11/08 02:30:32;;;;;;;3.53;1.60;;;;;;;7.27;100.00;100546.94;4990480;28;20042;-86
2021/11/08 02:33:00;;;;;;;7.03;1.83;;;;;;;7.25;100.00;100552.22;4991706;28;20053;-85
2021/11/08 02:35:27;;;;;;;7.30;1.97;;;;;;;7.28;100.00;100557.44;4976574;28;20046;-85
2021/11/08 02:37:58;;;;;;;4.00;2.07;;;;;;;7.23;100.00;100556.63;4974666;28;20112;-86
2021/11/08 02:40:28;;;;;;;7.40;2.30;;;;;;;7.28;100.00;100553.94;4972451;28;20130;-85
2021/11/08 02:42:59;;;;;;;5.67;2.00;;;;;;;7.28;100.00;100559.19;4974994;28;20049;-86
2021/11/08 02:45:28;;;;;;;4.67;2.10;;;;;;;7.40;100.00;100552.94;4974451;28;20049;-84
2021/11/08 02:47:56;;;;;;;5.87;1.60;;;;;;;7.36;100.00;100557.38;4961651;28;20532;-85
2021/11/08 02:50:27;;;;;;;4.23;2.00;;;;;;;7.39;100.00;100559.09;4970065;28;20043;-85
2021/11/08 02:52:54;;;;;;;3.33;2.17;;;;;;;7.40;100.00;100560.84;4990953;28;20054;-85
2021/11/08 02:55:23;;;;;;;3.50;1.50;;;;;;;7.38;100.00;100565.25;4970301;28;20618;-84
2021/11/08 02:57:52;;;;;;;6.33;1.67;;;;;;;7.37;100.00;100569.63;4974888;28;20042;-85
2021/11/08 03:00:20;;;;;;;4.20;1.73;;;;;;;7.36;100.00;100570.53;4973407;28;20465;-85
2021/11/08 03:02:48;;;;;;;4.83;2.23;;;;;;;7.34;100.00;100565.28;4971230;28;20141;-84
2021/11/08 03:05:16;;;;;;;4.03;1.43;;;;;;;7.38;100.00;100566.13;4988391;28;20046;-85
2021/11/08 03:07:43;;;;;;;5.23;2.03;;;;;;;7.37;100.00;100585.41;4971064;28;20046;-83
2021/11/08 03:10:17;;;;;;;2.97;1.37;;;;;;;7.38;100.00;100586.28;4953948;28;20045;-85
2021/11/08 03:12:45;;;;;;;4.25;1.52;;;;;;;7.42;100.00;100577.50;4955603;28;20047;-84
2021/11/08 03:15:29;;;;;;;4.17;2.00;;;;;;;7.44;100.00;100580.97;4954769;28;20130;-85
2021/11/08 03:18:06;;;;;;;2.05;1.42;;;;;;;7.38;100.00;100589.78;4983497;28;20050;-85
2021/11/08 03:20:34;;;;;;;4.30;1.50;;;;;;;7.37;100.00;100584.53;4972934;28;20050;-85
2021/11/08 03:23:05;;;;;;;3.80;2.10;;;;;;;7.43;100.00;100590.63;4958872;28;20431;-85
2021/11/08 03:28:00;;;;;;;3.07;1.60;;;;;;;7.41;100.00;100597.66;4974459;28;20050;-86
2021/11/08 03:30:38;;;;;;;2.57;1.30;;;;;;;7.48;100.00;100594.09;4973195;28;20049;-85
2021/11/08 03:33:07;;;;;;;3.40;1.50;;;;;;;7.44;100.00;100607.25;4959195;28;20507;-85
2021/11/08 03:35:34;;;;;;;3.80;1.87;;;;;;;7.48;100.00;100604.59;4975338;28;20051;-85
2021/11/08 03:38:03;;;;;;;3.97;2.10;;;;;;;7.48;100.00;100601.06;4955388;28;20133;-85
2021/11/08 03:40:33;;;;;;;4.77;2.13;;;;;;;7.54;100.00;100616.78;4953785;28;20058;-84
2021/11/08 03:43:01;;;;;;;3.87;1.50;;;;;;;7.50;100.00;100613.34;4939808;28;20109;-84
2021/11/08 03:45:29;;;;;;;4.77;1.50;;;;;;;7.54;100.00;100616.78;4938316;28;20516;-84
2021/11/08 03:47:58;;;;;;;2.20;1.30;;;;;;;7.52;100.00;100626.47;4939267;28;20058;-85
2021/11/08 03:50:25;;;;;;;2.90;1.23;;;;;;;7.54;100.00;100620.28;4937787;28;20043;-84
2021/11/08 03:52:52;;;;;;;3.40;1.53;;;;;;;7.49;100.00;100622.09;4938811;28;20421;-85
2021/11/08 03:55:19;;;;;;;2.87;1.37;;;;;;;7.54;100.00;100630.81;4989250;28;20050;-84
2021/11/08 03:57:48;;;;;;;2.30;1.40;;;;;;;7.55;100.00;100631.69;4989415;28;20423;-84
2021/11/08 04:00:16;;;;;;;3.50;1.77;;;;;;;7.62;100.00;100643.91;4973520;28;20042;-84
2021/11/08 04:02:44;;;;;;;2.47;1.50;;;;;;;7.56;100.00;100644.81;4988772;28;20042;-84
2021/11/08 04:05:11;;;;;;;2.70;1.80;;;;;;;7.53;100.00;100644.84;4971175;28;20043;-85
2021/11/08 04:07:38;;;;;;;5.50;1.70;;;;;;;7.52;100.00;100644.88;4989499;28;20046;-85
2021/11/08 04:10:07;;;;;;;3.60;1.90;;;;;;;7.58;100.00;100650.06;4956434;28;20042;-85
2021/11/08 04:12:35;;;;;;;4.30;2.13;;;;;;;7.49;100.00;100652.78;4990042;28;20042;-85
2021/11/08 04:15:08;;;;;;;5.80;1.40;;;;;;;7.50;100.00;100654.53;4970082;28;20074;-85
2021/11/08 04:17:35;;;;;;;2.73;1.43;;;;;;;7.55;100.00;100663.22;4973587;28;20042;-85
2021/11/08 04:20:03;;;;;;;3.50;1.70;;;;;;;7.55;100.00;100664.09;4986968;28;20035;-85
2021/11/08 04:22:30;;;;;;;2.23;1.43;;;;;;;7.56;100.00;100665.84;4973673;28;20057;-84
2021/11/08 04:24:57;;;;;;;3.63;1.60;;;;;;;7.56;100.00;100659.72;4988790;28;20054;-84
2021/11/08 04:27:23;;;;;;;3.57;1.70;;;;;;;7.54;100.00;100667.63;4969983;28;20047;-86
2021/11/08 04:29:50;;;;;;;2.43;1.43;;;;;;;7.52;100.00;100674.66;4980881;28;20045;-84
2021/11/08 04:32:17;;;;;;;3.83;1.80;;;;;;;7.57;100.00;100677.25;5059708;23;20053;-86
2021/11/08 04:34:48;;;;;;;2.20;1.53;;;;;;;7.56;100.00;100680.75;4954839;28;20090;-84
2021/11/08 04:37:34;;;;;;;3.07;1.57;;;;;;;7.56;100.00;100691.25;4938723;28;20050;-84
2021/11/08 04:42:38;;;;;;;5.90;1.90;;;;;;;7.72;100.00;100690.25;4951374;28;20047;-85
2021/11/08 04:51:04;;;;;;;2.57;1.40;;;;;;;7.65;100.00;100691.22;4954401;28;20039;-85
2021/11/08 04:53:19;;;;;;;2.60;1.47;;;;;;;7.65;100.00;100695.56;4952753;28;20102;-85
2021/11/08 05:20:52;;;;;;;3.67;1.37;;;;;;;7.70;100.00;100699.91;4952570;28;20047;-85
2021/11/08 05:29:54;;;;;;;2.77;1.40;;;;;;;7.84;100.00;100745.41;4958492;28;20500;-85
2021/11/08 05:31:31;;;;;;;;;;;;;;;7.74;100.00;100749.00;4956140;28;20493;-86
2021/11/08 05:33:58;;;;;;;3.43;1.80;;;;;;;7.72;100.00;100750.75;4940010;28;20303;-85
2021/11/08 05:36:24;;;;;;;2.33;1.73;;;;;;;7.76;100.00;100751.59;4941199;28;20050;-85
2021/11/08 05:38:51;;;;;;;3.97;2.10;;;;;;;7.82;100.00;100748.94;4939845;28;20051;-85
2021/11/08 05:41:18;;;;;;;3.97;1.50;;;;;;;7.80;100.00;100754.19;4941655;28;20133;-85
2021/11/08 05:43:45;;;;;;;3.87;1.27;;;;;;;7.78;100.00;100758.59;4954655;28;20680;-85
2021/11/08 05:46:12;;;;;;;2.40;1.30;;;;;;;7.77;100.00;100748.97;4950725;28;20557;-84
2021/11/08 05:48:39;;;;;;;2.27;1.10;;;;;;;7.84;100.00;100762.94;4930855;28;20047;-84
2021/11/08 05:51:06;;;;;;;2.77;1.27;;;;;;;7.87;100.00;100769.03;4956758;28;20050;-84
2021/11/08 05:53:32;;;;;;;2.10;1.10;;;;;;;7.79;100.00;100768.22;4933555;29;20047;-85
2021/11/08 05:56:14;;;;;;;2.53;1.20;;;;;;;7.80;100.00;100769.97;4932775;28;20043;-84
2021/11/08 06:48:16;;;;;;;2.27;1.67;;;;;;;8.00;100.00;100793.50;4957901;28;20137;-83
2021/11/08 06:51:05;;;;;;;1.87;1.60;;;;;;;8.04;100.00;100871.53;4960451;28;20045;-85
2021/11/08 06:53:32;;;;;;;2.97;1.53;;;;;;;8.03;100.00;100872.41;4940767;28;20086;-85
2021/11/08 06:56:01;;;;;;;3.90;2.23;;;;;;;8.10;100.00;100875.88;4941858;28;20508;-84
2021/11/08 06:58:30;;;;;;;3.53;2.27;;;;;;;8.13;100.00;100883.75;4939741;28;20054;-84
2021/11/08 07:00:58;;;;;;;3.60;1.90;;;;;;;8.15;100.00;100887.22;4941899;28;20046;-85
2021/11/08 07:03:25;;;;;;;2.00;1.67;;;;;;;8.09;100.00;100884.66;4940096;28;20049;-85
2021/11/08 07:05:52;;;;;;;1.87;1.50;;;;;;;8.13;100.00;100889.00;4940049;28;20057;-85
2021/11/08 07:08:18;;;;;;;2.43;1.83;;;;;;;8.11;100.00;100893.41;4955036;28;20047;-84
2021/11/08 07:10:46;;;;;;;2.10;1.47;;;;;;;8.19;100.00;100894.22;4940182;28;20042;-85
2021/11/08 07:13:12;;;;;;;2.30;1.10;;;;;;;8.25;100.00;100894.19;4955625;28;20051;-84
2021/11/08 07:15:41;;;;;;;2.60;1.43;;;;;;;8.29;100.00;100902.94;4939119;28;20515;-84
2021/11/08 07:18:14;;;;;;;2.08;1.20;;;;;;;8.26;100.00;100909.09;4988281;28;20046;-86
2021/11/08 07:20:41;;;;;;;3.17;1.33;;;;;;;8.24;100.00;100912.59;4932203;29;20066;-85
2021/11/08 07:23:08;;;;;;;1.43;1.10;;;;;;;8.26;100.00;100903.84;4968549;28;20290;-85
2021/11/08 07:25:35;;;;;;;2.60;1.67;;;;;;;8.37;100.00;100914.31;4952110;28;20164;-84
2021/11/08 07:28:08;;;;;;;1.27;0.90;;;;;;;8.36;100.00;100916.06;4952134;28;20047;-84
2021/11/08 07:30:35;;;;;;;2.37;1.77;;;;;;;8.42;100.00;100916.03;4951463;29;20445;-84
2021/11/08 07:33:02;;;;;;;2.00;1.50;;;;;;;8.44;100.00;100916.88;4936361;29;20070;-85
2021/11/08 07:35:29;;;;;;;5.22;1.90;;;;;;;8.43;100.00;100928.31;4941010;28;20533;-85
2021/11/08 07:38:00;;;;;;;3.05;2.03;;;;;;;8.44;100.00;100931.81;4971353;28;20043;-84
2021/11/08 07:40:27;;;;;;;2.70;1.85;;;;;;;8.43;100.00;100938.84;4938638;28;20042;-84
2021/11/08 07:42:54;;;;;;;1.90;1.63;;;;;;;8.48;100.00;100937.91;4939873;28;20074;-86
2021/11/08 07:45:21;;;;;;;1.40;1.30;;;;;;;8.45;100.00;100929.16;4971221;28;20050;-84
2021/11/08 07:47:48;;;;;;;1.60;1.40;;;;;;;8.44;100.00;100937.09;4988634;28;20053;-83
2021/11/08 07:50:35;;;;;;;1.50;1.30;;;;;;;8.49;100.00;100939.66;4972427;28;20050;-85
2021/11/08 07:53:02;;;;;;;1.30;1.00;;;;;;;8.52;100.00;100944.94;4973170;28;20062;-84
2021/11/08 07:55:29;;;;;;;1.07;0.90;;;;;;;8.53;100.00;100951.94;4955954;28;20051;-84
2021/11/08 07:57:55;;;;;;;2.07;1.27;;;;;;;8.55;100.00;100951.03;4971514;28;20047;-86
2021/11/08 08:00:22;;;;;;;1.17;0.80;;;;;;;8.48;100.00;100951.09;4939112;28;20070;-84
2021/11/08 08:02:49;;;;;;;1.67;1.10;;;;;;;8.49;100.00;100950.19;4971899;28;20117;-84
2021/11/08 08:05:17;;;;;;;1.13;0.83;;;;;;;8.50;100.00;100952.84;4922413;28;20070;-84
2021/11/08 08:07:44;;;;;;;3.07;1.50;;;;;;;8.51;100.00;100953.72;4938154;28;20062;-83
2021/11/08 08:10:11;;;;;;;4.00;1.40;;;;;;;8.54;100.00;100954.56;4932697;28;20780;-84
2021/11/08 08:12:38;;;;;;;5.17;1.97;;;;;;;8.54;100.00;100957.19;4920644;29;20454;-87
2021/11/08 08:15:10;;;;;;;3.50;2.13;;;;;;;8.51;100.00;100957.22;4935472;29;20519;-84
2021/11/08 08:17:37;;;;;;;6.10;2.30;;;;;;;8.57;100.00;100964.19;4951710;29;20137;-83
2021/11/08 08:20:08;;;;;;;6.07;2.40;;;;;;;8.56;100.00;100963.31;4922177;28;20051;-85
2021/11/08 08:22:34;;;;;;;7.67;3.00;;;;;;;8.53;100.00;100973.00;4987084;28;20059;-83
2021/11/08 08:25:02;;;;;;;8.85;4.03;;;;;;;8.59;100.00;100971.22;4969859;28;20142;-84
2021/11/08 08:27:29;;;;;;;6.87;3.20;;;;;;;8.61;100.00;100971.19;4961461;28;20616;-83
2021/11/08 08:29:56;;;;;;;12.98;3.60;;;;;;;8.59;100.00;100970.34;4918520;29;20132;-83
2021/11/08 08:32:23;;;;;;;8.67;3.87;;;;;;;8.61;100.00;100971.19;4966146;28;20042;-85
2021/11/08 08:34:50;;;;;;;5.32;2.90;;;;;;;8.58;100.00;100974.72;4948804;28;20522;-83
2021/11/08 08:37:17;;;;;;;8.85;4.07;;;;;;;8.64;100.00;100981.69;4954044;28;20409;-84
2021/11/08 08:39:45;;;;;;;15.23;4.73;;;;;;;8.71;100.00;100991.31;4919586;29;20235;-83
2021/11/08 08:42:12;;;;;;;7.77;3.70;;;;;;;8.61;100.00;100987.88;4952590;28;20097;-83
2021/11/08 08:44:40;;;;;;;8.68;3.38;;;;;;;8.64;100.00;100981.69;4956902;28;20076;-83
2021/11/08 08:47:06;;;;;;;8.10;3.67;;;;;;;8.67;100.00;100993.09;4954395;28;21603;-83
2021/11/08 08:49:37;;;;;;;8.60;3.33;;;;;;;8.68;100.00;100996.59;4922635;28;20126;-83
2021/11/08 08:52:04;;;;;;;11.45;4.25;;;;;;;8.70;100.00;100994.81;4931989;28;20046;-82
2021/11/08 08:54:31;;;;;;;8.20;3.63;;;;;;;8.71;100.00;101007.97;4941338;28;20050;-84
2021/11/08 08:56:58;;;;;;;7.38;3.80;;;;;;;8.67;100.00;101011.53;4942782;28;20086;-83
2021/11/08 08:59:24;;;;;;;6.25;3.15;;;;;;;8.69;100.00;101014.16;4956417;28;20062;-82
2021/11/08 09:01:53;;;;;;;6.72;2.75;;;;;;;8.69;100.00;101016.78;4960333;28;20096;-84
2021/11/08 09:04:20;;;;;;;9.35;2.78;;;;;;;8.69;100.00;101022.94;4964120;28;20385;-83
2021/11/08 09:06:47;;;;;;;6.68;2.92;;;;;;;8.66;100.00;101020.31;4954473;29;20102;-85
2021/11/08 09:09:14;;;;;;;6.68;2.92;;;;;;;8.75;100.00;101024.66;4953327;28;20047;-83
2021/11/08 09:11:41;;;;;;;7.05;3.33;;;;;;;8.76;100.00;101022.91;4954603;29;20408;-83
2021/11/08 09:14:08;;;;;;;7.65;3.33;;;;;;;8.82;100.00;101026.34;4953275;28;20039;-84
2021/11/08 09:16:34;;;;;;;6.55;2.78;;;;;;;8.78;100.00;101034.28;4946586;28;20046;-82
2021/11/08 09:19:01;;;;;;;5.57;2.75;;;;;;;8.76;100.00;101033.44;4940823;28;20081;-84
2021/11/08 09:21:30;;;;;;;7.85;2.78;;;;;;;8.84;100.00;101034.25;4957828;28;20416;-83
2021/11/08 09:23:58;;;;;;;8.07;3.50;;;;;;;8.84;100.00;101036.88;4956705;28;20042;-84
2021/11/08 09:26:31;;;;;;;6.22;2.85;;;;;;;8.89;100.00;101033.31;4942563;28;20054;-86
2021/11/08 09:28:58;;;;;;;4.57;2.85;;;;;;;8.91;100.00;101036.84;4959014;28;20654;-85
2021/11/08 09:31:26;;;;;;;6.97;2.72;;;;;;;8.96;100.00;101044.69;4944035;28;20093;-85
2021/11/08 09:33:58;;;;;;;4.55;2.38;;;;;;;9.06;100.00;101053.38;4959249;28;20054;-84
2021/11/08 09:36:24;;;;;;;6.97;2.67;;;;;;;9.21;100.00;101051.50;4963158;28;20481;-84
2021/11/08 09:38:55;;;;;;;4.00;2.17;;;;;;;9.29;100.00;101057.59;4977267;28;20100;-84
2021/11/08 09:41:31;;;;;;;5.35;2.25;;;;;;;9.35;100.00;101051.38;4963358;28;20042;-84
2021/11/08 09:44:04;;;;;;;3.65;2.00;;;;;;;9.30;100.00;101054.06;4961370;28;20046;-83
2021/11/08 09:46:31;;;;;;;4.65;1.88;;;;;;;9.27;100.00;101061.13;4962324;28;20051;-84
2021/11/08 09:49:00;;;;;;;3.22;1.70;;;;;;;9.34;100.00;101065.47;4975744;28;20049;-84
2021/11/08 09:51:29;;;;;;;3.20;1.85;;;;;;;9.33;100.00;101058.41;4966978;28;20389;-84
2021/11/08 09:53:56;;;;;;;3.38;1.80;;;;;;;9.22;100.00;101065.56;4937930;29;20068;-85
2021/11/08 09:56:24;;;;;;;4.15;1.73;;;;;;;9.21;100.00;101063.81;4941070;28;20516;-82
2021/11/08 09:58:56;;;;;;;4.35;2.22;;;;;;;9.21;100.00;101066.44;4942285;28;20050;-83
2021/11/08 10:01:40;;;;;;;2.97;1.80;;;;;;;9.22;100.00;101076.97;4947325;28;20125;-83
2021/11/08 10:04:10;;;;;;;4.70;2.03;;;;;;;9.15;100.00;101070.00;4944431;28;20038;-85
2021/11/08 10:06:39;;;;;;;6.07;1.70;;;;;;;9.20;100.00;101067.34;4941564;28;20055;-84
2021/11/08 10:09:08;;;;;;;3.97;1.45;;;;;;;9.22;100.00;101076.09;4924161;29;20110;-83
2021/11/08 10:11:39;;;;;;;3.28;1.65;;;;;;;9.20;100.00;101070.84;4939726;29;20047;-83
2021/11/08 10:14:08;;;;;;;4.32;1.70;;;;;;;9.20;100.00;101068.22;4954728;28;20388;-83
2021/11/08 10:16:37;;;;;;;4.20;1.90;;;;;;;9.19;100.00;101071.75;4924596;29;20059;-83
2021/11/08 10:19:07;;;;;;;3.38;1.50;;;;;;;9.21;100.00;101080.50;4922484;29;20051;-83
2021/11/08 10:21:37;;;;;;;2.10;1.63;;;;;;;9.20;100.00;101080.53;4940029;29;20055;-84
2021/11/08 10:24:07;;;;;;;4.18;1.77;;;;;;;9.23;100.00;101085.75;4956251;28;20055;-82
2021/11/08 10:26:36;;;;;;;2.17;1.33;;;;;;;9.19;100.00;101089.31;4955164;29;20047;-84
2021/11/08 10:29:09;;;;;;;4.28;1.40;;;;;;;9.18;100.00;101098.13;4936782;28;20086;-82
2021/11/08 10:31:44;;;;;;;15.18;9.40;;;;;;;9.16;100.00;101089.31;4923302;29;20515;-81
2021/11/08 10:34:12;;;;;;;7.38;4.88;;;;;;;9.24;100.00;101087.50;4936700;29;20452;-83
2021/11/08 10:36:39;;;;;;;4.88;2.00;;;;;;;9.31;100.00;101094.47;4935782;28;20053;-83
2021/11/08 10:39:09;;;;;;;3.13;2.17;;;;;;;9.30;100.00;101090.97;4955890;28;20047;-84
2021/11/08 10:41:44;;;;;;;4.90;2.47;;;;;;;9.32;100.00;101097.09;5017353;24;20038;-85
2021/11/08 10:44:16;;;;;;;3.67;1.50;;;;;;;9.33;100.00;101095.34;5007248;28;20112;-84
2021/11/08 10:46:46;;;;;;;2.65;1.33;;;;;;;9.35;100.00;101097.97;4984199;28;20117;-84
2021/11/08 10:49:16;;;;;;;9.27;7.45;;;;;;;9.33;100.00;101100.59;4985119;28;20046;-83
2021/11/08 10:51:55;;;;;;;4.00;2.42;;;;;;;9.40;100.00;101093.53;4976804;28;20053;-84
2021/11/08 10:54:26;;;;;;;3.20;1.60;;;;;;;9.37;100.00;101106.75;4958465;28;20077;-86
2021/11/08 10:57:02;;;;;;;4.22;3.22;;;;;;;9.36;100.00;101105.00;4975316;28;20042;-84
2021/11/08 10:59:31;;;;;;;2.22;1.70;;;;;;;9.39;100.00;101108.47;4974809;28;20399;-87
2021/11/08 11:02:01;;;;;;;2.60;1.60;;;;;;;9.40;100.00;101112.84;4977894;28;20511;-86
2021/11/08 11:04:44;;;;;;;3.72;1.90;;;;;;;9.41;100.00;101109.31;4961268;28;20455;-85
2021/11/08 11:07:28;;;;;;;4.22;2.40;;;;;;;9.47;100.00;101109.28;4975622;28;20043;-86
2021/11/08 11:10:07;;;;;;;4.95;2.00;;;;;;;9.44;100.00;101111.97;4974633;28;20042;-85
2021/11/08 11:12:35;;;;;;;2.85;2.10;;;;;;;9.45;100.00;101113.72;4975364;28;20046;-86
2021/11/08 11:15:09;;;;;;;3.17;2.00;;;;;;;9.44;100.00;101114.59;4958465;28;20042;-86
2021/11/08 11:17:44;;;;;;;;;;;;;;;9.33;100.00;101119.06;4959882;28;20153;-85
2021/11/08 11:20:20;;;;;;;4.78;3.75;;;;;;;9.33;100.00;101119.06;4974551;28;20496;-87
2021/11/08 11:23:05;;;;;;;5.75;2.58;;;;;;;9.27;100.00;101121.78;4976749;28;20522;-88
2021/11/08 11:25:34;;;;;;;5.50;2.80;;;;;;;9.24;100.00;101116.50;4955788;28;20105;-88
2021/11/08 11:28:01;;;;;;;4.10;2.25;;;;;;;9.24;100.00;101122.66;4940287;28;20149;-90
2021/11/08 11:30:28;;;;;;;2.80;1.70;;;;;;;9.26;100.00;101115.63;4955264;28;20105;-88
2021/11/08 11:32:56;;;;;;;2.95;2.08;;;;;;;9.24;100.00;101116.50;4962004;28;20041;-88
2021/11/08 11:35:23;;;;;;;3.67;1.88;;;;;;;9.24;100.00;101127.91;4990646;28;20539;-88
2021/11/08 11:37:59;;;;;;;2.80;2.10;;;;;;;9.32;100.00;101122.59;4991750;28;20074;-89
2021/11/08 11:40:27;;;;;;;4.22;1.95;;;;;;;9.27;100.00;101125.28;4974786;28;20042;-88
2021/11/08 11:42:56;;;;;;;4.20;2.13;;;;;;;9.24;100.00;101127.03;4975125;28;20046;-89
2021/11/08 11:45:24;;;;;;;3.83;2.10;;;;;;;9.16;100.00;101128.88;4974243;28;20053;-89
2021/11/08 11:48:04;;;;;;;7.57;2.88;;;;;;;9.21;100.00;101119.16;4975540;28;20046;-88
2021/11/08 11:50:33;;;;;;;8.15;3.38;;;;;;;9.18;100.00;101122.72;4955951;28;20046;-88
2021/11/08 11:53:02;;;;;;;6.85;3.88;;;;;;;9.17;100.00;101128.00;4974990;28;20042;-88
2021/11/08 11:55:32;;;;;;;4.75;2.40;;;;;;;9.15;100.00;101120.09;4973735;28;20057;-89
2021/11/08 11:58:01;;;;;;;5.93;3.15;;;;;;;9.12;100.00;101121.88;4975387;28;20042;-88
2021/11/08 12:00:32;;;;;;;8.15;3.33;;;;;;;9.31;100.00;101121.72;4990063;28;20129;-87
2021/11/08 12:02:59;;;;;;;5.55;2.95;;;;;;;9.20;100.00;101130.59;4974890;28;20081;-88
2021/11/08 12:05:29;;;;;;;13.77;4.53;;;;;;;9.19;100.00;101128.88;4957425;28;20038;-88
2021/11/08 12:07:57;;;;;;;11.27;4.28;;;;;;;9.22;100.00;101132.34;4991227;28;20562;-88
2021/11/08 12:10:24;;;;;;;7.97;3.60;;;;;;;9.19;100.00;101126.22;4989963;28;20046;-89
2021/11/08 12:12:50;;;;;;;9.80;4.70;;;;;;;9.17;100.00;101142.06;4995517;28;20046;-91
2021/11/08 12:15:28;;;;;;;11.13;5.45;;;;;;;9.24;100.00;101137.59;4977905;28;20074;-89
2021/11/08 12:18:02;;;;;;;8.13;5.32;;;;;;;9.20;100.00;101130.59;4978648;28;20047;-87
2021/11/08 12:20:29;;;;;;;10.38;4.50;;;;;;;9.23;100.00;101142.00;5009471;28;20101;-83
2021/11/08 12:22:56;;;;;;;11.05;3.80;;;;;;;9.24;100.00;101132.31;4982713;28;20049;-83
2021/11/08 12:25:26;;;;;;;5.25;3.08;;;;;;;9.30;100.00;101134.91;4965859;28;20050;-84
2021/11/08 12:27:56;;;;;;;8.20;3.05;;;;;;;9.30;100.00;101137.56;4958866;28;20057;-84
2021/11/08 12:30:29;;;;;;;7.57;3.85;;;;;;;9.32;100.00;101138.41;4959188;28;20201;-85
2021/11/08 12:33:00;;;;;;;8.40;4.28;;;;;;;9.32;100.00;101133.13;4967229;28;20093;-83
2021/11/08 12:35:38;;;;;;;8.85;3.65;;;;;;;9.36;100.00;101134.88;4957900;28;20061;-85
2021/11/08 12:38:15;;;;;;;9.80;3.53;;;;;;;9.30;100.00;101137.56;4958692;28;20043;-85
2021/11/08 12:40:42;;;;;;;7.38;3.55;;;;;;;9.32;100.00;101148.97;4977003;28;20069;-85
2021/11/08 12:43:09;;;;;;;6.55;3.03;;;;;;;9.30;100.00;101132.28;4993591;28;20411;-84
2021/11/08 12:45:41;;;;;;;7.28;3.55;;;;;;;9.26;100.00;101147.25;4993745;28;20495;-85
2021/11/08 12:48:11;;;;;;;9.15;3.70;;;;;;;9.27;100.00;101142.88;4993784;28;20038;-85
2021/11/08 12:50:52;;;;;;;9.05;4.65;;;;;;;9.34;100.00;101148.97;4961357;28;20050;-84
2021/11/08 12:53:27;;;;;;;8.32;3.38;;;;;;;9.25;100.00;101155.19;4993288;28;20038;-84
2021/11/08 12:55:57;;;;;;;11.45;3.67;;;;;;;9.27;100.00;101142.88;4994218;28;20061;-84
2021/11/08 12:58:46;;;;;;;11.02;3.50;;;;;;;9.21;100.00;101154.31;4976348;28;20050;-85
2021/11/08 13:01:19;;;;;;;10.55;4.03;;;;;;;9.22;100.00;101155.19;4962921;28;20072;-84
2021/11/08 13:03:49;;;;;;;8.30;3.45;;;;;;;9.16;100.00;101155.22;4992714;28;20061;-85
2021/11/08 13:06:28;;;;;;;8.52;3.78;;;;;;;9.19;100.00;101157.84;4988915;28;20048;-86
2021/11/08 13:09:19;;;;;;;8.82;3.85;;;;;;;9.14;100.00;101152.59;4973149;28;20419;-84
2021/11/08 13:11:49;;;;;;;5.47;3.53;;;;;;;9.06;100.00;101154.41;4979655;28;20058;-84